createdAt,value
2023-06-04T00:01:30.559Z,14.90
2023-06-04T00:03:59.227Z,14.80
2023-06-04T00:06:29.074Z,14.60
2023-06-04T00:08:57.597Z,14.60
2023-06-04T00:11:27.674Z,14.60
2023-06-04T00:13:56.308Z,14.60
2023-06-04T00:16:24.862Z,14.60
2023-06-04T00:18:53.351Z,14.60
2023-06-04T00:21:21.922Z,14.60
2023-06-04T00:23:51.743Z,14.70
2023-06-04T00:26:21.210Z,14.70
2023-06-04T00:28:49.683Z,14.70
2023-06-04T00:31:18.202Z,14.70
2023-06-04T00:33:46.690Z,14.60
2023-06-04T00:36:15.329Z,14.60
2023-06-04T00:38:43.928Z,14.60
2023-06-04T00:41:13.831Z,14.50
2023-06-04T00:43:46.733Z,14.50
2023-06-04T00:46:19.411Z,14.50
2023-06-04T00:48:48.043Z,14.50
2023-06-04T00:51:16.524Z,14.40
2023-06-04T00:53:45.232Z,14.40
2023-06-04T00:56:15.186Z,14.40
2023-06-04T00:58:44.069Z,14.50
2023-06-04T01:01:17.794Z,14.50
2023-06-04T01:03:49.485Z,14.50
2023-06-04T01:06:22.273Z,14.30
2023-06-04T01:08:55.528Z,14.30
2023-06-04T01:11:35.473Z,14.30
2023-06-04T01:14:04.730Z,14.20
2023-06-04T01:16:39.787Z,14.30
2023-06-04T01:19:43.077Z,14.30
2023-06-04T01:22:17.458Z,14.30
2023-06-04T01:24:48.347Z,14.30
2023-06-04T01:27:19.077Z,14.30
2023-06-04T01:29:50.347Z,14.30
2023-06-04T01:32:18.917Z,14.20
2023-06-04T01:34:47.882Z,14.30
2023-06-04T01:37:17.338Z,14.30
2023-06-04T01:39:45.777Z,14.30
2023-06-04T01:42:14.221Z,14.40
2023-06-04T01:44:44.016Z,14.30
2023-06-04T01:47:12.470Z,14.30
2023-06-04T01:49:41.702Z,14.40
2023-06-04T01:52:10.252Z,14.40
2023-06-04T01:54:39.630Z,14.40
2023-06-04T01:57:09.052Z,14.40
2023-06-04T01:59:37.630Z,14.30
2023-06-04T02:02:07.884Z,14.40
2023-06-04T02:04:37.618Z,14.40
2023-06-04T02:07:08.089Z,14.40
2023-06-04T02:09:37.113Z,14.40
2023-06-04T02:12:06.236Z,14.40
2023-06-04T02:14:34.766Z,14.50
2023-06-04T02:17:03.196Z,14.50
2023-06-04T02:19:35.178Z,14.40
2023-06-04T02:22:03.830Z,14.40
2023-06-04T02:24:32.303Z,14.50
2023-06-04T02:27:00.719Z,14.40
2023-06-04T02:29:29.275Z,14.30
2023-06-04T02:31:57.768Z,14.10
2023-06-04T02:34:26.201Z,14.10
2023-06-04T02:36:56.017Z,14.10
2023-06-04T02:39:24.442Z,14.00
2023-06-04T02:41:52.870Z,13.80
2023-06-04T02:44:21.430Z,13.80
2023-06-04T02:46:49.925Z,13.80
2023-06-04T02:49:18.444Z,13.80
2023-06-04T02:51:47.178Z,13.80
2023-06-04T02:54:18.078Z,13.90
2023-06-04T02:56:46.640Z,13.90
2023-06-04T02:59:15.165Z,13.90
2023-06-04T03:01:44.457Z,13.90
2023-06-04T03:04:16.730Z,13.90
2023-06-04T03:06:47.471Z,13.80
2023-06-04T03:09:17.498Z,13.80
2023-06-04T03:11:46.163Z,13.70
2023-06-04T03:14:14.876Z,13.70
2023-06-04T03:16:43.504Z,13.50
2023-06-04T03:19:12.600Z,13.50
2023-06-04T03:21:41.118Z,13.60
2023-06-04T03:24:09.600Z,13.60
2023-06-04T03:26:39.420Z,13.60
2023-06-04T03:29:07.811Z,13.60
2023-06-04T03:31:36.426Z,13.50
2023-06-04T03:34:04.863Z,13.50
2023-06-04T03:36:33.647Z,13.40
2023-06-04T03:39:02.272Z,13.50
2023-06-04T03:41:30.839Z,13.60
2023-06-04T03:44:00.633Z,13.60
2023-06-04T03:46:32.706Z,13.60
2023-06-04T03:49:01.348Z,13.60
2023-06-04T03:51:29.805Z,13.70
2023-06-04T03:53:58.233Z,13.80
2023-06-04T03:56:27.996Z,13.80
2023-06-04T03:58:56.576Z,13.90
2023-06-04T04:01:26.503Z,13.80
2023-06-04T04:03:55.681Z,13.90
2023-06-04T04:06:24.322Z,13.90
2023-06-04T04:08:52.798Z,13.90
2023-06-04T04:11:21.398Z,14.00
2023-06-04T04:13:51.015Z,14.00
2023-06-04T04:16:19.529Z,14.10
2023-06-04T04:18:49.389Z,14.10
2023-06-04T04:21:17.958Z,14.10
2023-06-04T04:23:47.547Z,14.20
2023-06-04T04:26:17.791Z,14.20
2023-06-04T04:28:46.514Z,14.20
2023-06-04T04:31:15.922Z,14.20
2023-06-04T04:33:44.503Z,14.30
2023-06-04T04:36:15.166Z,14.40
2023-06-04T04:38:43.662Z,14.40
2023-06-04T04:41:12.703Z,14.50
2023-06-04T04:43:41.419Z,14.50
2023-06-04T04:46:10.960Z,14.50
2023-06-04T04:48:41.734Z,14.60
2023-06-04T04:51:10.172Z,14.50
2023-06-04T04:53:40.053Z,14.50
2023-06-04T04:56:08.505Z,14.50
2023-06-04T04:58:36.961Z,14.60
2023-06-04T05:01:05.935Z,14.60
2023-06-04T05:03:34.620Z,14.70
2023-06-04T05:06:03.155Z,14.80
2023-06-04T05:08:31.601Z,14.80
2023-06-04T05:11:01.441Z,14.90
2023-06-04T05:13:29.907Z,15.00
2023-06-04T05:15:59.257Z,15.00
2023-06-04T05:18:30.904Z,15.00
2023-06-04T05:21:01.069Z,15.20
2023-06-04T05:23:30.568Z,15.40
2023-06-04T05:25:59.021Z,15.60
2023-06-04T05:28:28.979Z,15.80
2023-06-04T05:31:00.047Z,15.80
2023-06-04T05:33:28.895Z,15.90
2023-06-04T05:35:58.840Z,15.90
2023-06-04T05:38:27.825Z,15.90
2023-06-04T05:40:56.572Z,16.00
2023-06-04T05:43:25.350Z,16.20
2023-06-04T05:45:55.241Z,16.20
2023-06-04T05:48:23.745Z,16.30
2023-06-04T05:50:52.180Z,16.30
2023-06-04T05:53:20.568Z,16.40
2023-06-04T05:55:49.057Z,16.50
2023-06-04T05:58:17.489Z,16.60
2023-06-04T06:00:46.021Z,16.70
2023-06-04T06:03:17.785Z,16.70
2023-06-04T06:05:46.613Z,16.70
2023-06-04T06:08:16.389Z,16.70
2023-06-04T06:10:44.886Z,16.70
2023-06-04T06:13:13.471Z,16.70
2023-06-04T06:15:42.119Z,16.70
2023-06-04T06:18:10.701Z,16.60
2023-06-04T06:20:40.628Z,16.60
2023-06-04T06:23:09.535Z,16.70
2023-06-04T06:25:38.032Z,16.60
2023-06-04T06:28:06.616Z,16.70
2023-06-04T06:30:35.124Z,16.80
2023-06-04T06:33:03.567Z,16.80
2023-06-04T06:35:32.123Z,16.90
2023-06-04T06:38:01.956Z,17.00
2023-06-04T06:40:31.497Z,17.10
2023-06-04T06:43:00.072Z,17.10
2023-06-04T06:45:28.556Z,17.20
2023-06-04T06:47:57.054Z,17.20
2023-06-04T06:50:25.583Z,17.20
2023-06-04T06:52:54.076Z,17.20
2023-06-04T06:55:24.064Z,17.20
2023-06-04T06:57:52.625Z,17.20
2023-06-04T07:00:21.368Z,17.30
2023-06-04T07:02:49.939Z,17.30
2023-06-04T07:05:18.739Z,17.40
2023-06-04T07:07:47.503Z,17.50
2023-06-04T07:10:16.067Z,17.60
2023-06-04T07:12:45.875Z,17.70
2023-06-04T07:15:14.331Z,17.70
2023-06-04T07:17:43.028Z,17.80
2023-06-04T07:20:11.558Z,17.80
2023-06-04T07:22:40.695Z,17.80
2023-06-04T07:25:09.987Z,17.90
2023-06-04T07:27:39.582Z,18.00
2023-06-04T07:30:12.053Z,18.20
2023-06-04T07:32:40.552Z,18.40
2023-06-04T07:35:10.248Z,18.50
2023-06-04T07:37:38.759Z,18.70
2023-06-04T07:40:08.358Z,18.80
2023-06-04T07:42:36.856Z,18.90
2023-06-04T07:45:06.084Z,19.10
2023-06-04T07:47:37.342Z,19.10
2023-06-04T07:50:06.666Z,19.20
2023-06-04T07:52:35.259Z,19.30
2023-06-04T07:55:04.184Z,19.30
2023-06-04T07:57:32.867Z,19.40
2023-06-04T08:00:02.872Z,19.50
2023-06-04T08:02:31.385Z,19.60
2023-06-04T08:05:01.374Z,19.70
2023-06-04T08:07:30.112Z,19.80
2023-06-04T08:09:58.618Z,19.80
2023-06-04T08:12:27.147Z,19.90
2023-06-04T08:14:57.925Z,19.90
2023-06-04T08:17:26.715Z,19.80
2023-06-04T08:19:55.195Z,19.90
2023-06-04T08:22:25.057Z,20.00
2023-06-04T08:24:53.522Z,20.00
2023-06-04T08:27:21.947Z,20.00
2023-06-04T08:29:50.596Z,20.10
2023-06-04T08:32:19.096Z,20.00
2023-06-04T08:34:50.392Z,20.10
2023-06-04T08:37:19.104Z,20.10
2023-06-04T08:39:49.050Z,20.10
2023-06-04T08:42:21.787Z,20.30
2023-06-04T08:44:53.147Z,20.30
2023-06-04T08:47:22.561Z,20.40
2023-06-04T08:49:52.324Z,20.50
2023-06-04T08:52:22.471Z,20.50
2023-06-04T08:54:53.409Z,20.60
2023-06-04T08:57:21.997Z,20.80
2023-06-04T08:59:50.807Z,21.10
2023-06-04T09:02:19.762Z,21.30
2023-06-04T09:04:48.417Z,21.50
2023-06-04T09:07:17.070Z,21.60
2023-06-04T09:09:52.472Z,21.80
2023-06-04T09:12:32.033Z,21.90
2023-06-04T09:15:01.878Z,22.00
2023-06-04T09:17:30.999Z,22.10
2023-06-04T09:19:59.831Z,22.10
2023-06-04T09:22:35.427Z,22.30
2023-06-04T09:25:07.714Z,22.50
2023-06-04T09:27:41.955Z,22.50
2023-06-04T09:30:11.526Z,22.50
2023-06-04T09:32:40.217Z,22.40
2023-06-04T09:35:13.778Z,22.30
2023-06-04T09:37:42.544Z,22.40
2023-06-04T09:40:11.835Z,22.50
2023-06-04T09:42:50.628Z,22.60
2023-06-04T09:45:29.417Z,22.80
2023-06-04T09:47:57.997Z,22.80
2023-06-04T09:50:32.264Z,22.80
2023-06-04T09:53:00.938Z,22.80
2023-06-04T09:55:29.586Z,22.90
2023-06-04T09:58:00.180Z,23.00
2023-06-04T10:00:29.319Z,23.00
2023-06-04T10:02:59.671Z,22.80
2023-06-04T10:05:28.975Z,22.80
2023-06-04T10:07:59.138Z,22.60
2023-06-04T10:10:28.537Z,22.40
2023-06-04T10:13:05.060Z,22.30
2023-06-04T10:15:35.307Z,22.30
2023-06-04T10:18:04.489Z,22.20
2023-06-04T10:20:33.820Z,22.30
2023-06-04T10:23:03.158Z,22.30
2023-06-04T10:25:32.857Z,22.30
2023-06-04T10:28:04.784Z,22.40
2023-06-04T10:30:33.568Z,22.30
2023-06-04T10:33:02.297Z,22.40
2023-06-04T10:35:34.064Z,22.40
2023-06-04T10:38:10.429Z,22.50
2023-06-04T10:40:39.136Z,22.60
2023-06-04T10:43:09.523Z,22.60
2023-06-04T10:45:38.196Z,22.60
2023-06-04T10:48:07.715Z,22.60
2023-06-04T10:50:37.564Z,22.50
2023-06-04T10:53:06.562Z,22.50
2023-06-04T10:55:45.862Z,22.50
2023-06-04T10:58:16.581Z,22.40
2023-06-04T11:00:47.337Z,22.40
2023-06-04T11:03:16.487Z,22.50
2023-06-04T11:05:45.927Z,22.70
2023-06-04T11:08:15.440Z,23.00
2023-06-04T11:10:45.828Z,23.10
2023-06-04T11:13:16.680Z,23.30
2023-06-04T11:15:46.733Z,23.20
2023-06-04T11:18:19.257Z,23.30
2023-06-04T11:20:48.973Z,23.30
2023-06-04T11:23:18.912Z,23.40
2023-06-04T11:25:47.568Z,23.40
2023-06-04T11:28:19.242Z,23.30
2023-06-04T11:30:58.906Z,23.10
2023-06-04T11:33:27.591Z,22.90
2023-06-04T11:35:56.038Z,22.90
2023-06-04T11:38:24.519Z,23.00
2023-06-04T11:41:02.275Z,22.90
2023-06-04T11:43:32.138Z,22.70
2023-06-04T11:46:00.668Z,22.50
2023-06-04T11:48:29.367Z,22.50
2023-06-04T11:50:58.969Z,22.40
2023-06-04T11:53:27.546Z,22.40
2023-06-04T11:55:56.099Z,22.30
2023-06-04T11:58:24.711Z,22.20
2023-06-04T12:00:54.701Z,22.10
2023-06-04T12:03:35.724Z,22.10
2023-06-04T12:06:16.718Z,22.10
2023-06-04T12:08:52.457Z,22.00
2023-06-04T12:11:32.386Z,21.90
2023-06-04T12:14:02.172Z,21.80
2023-06-04T12:16:32.264Z,21.70
2023-06-04T12:19:08.695Z,21.60
2023-06-04T12:21:37.171Z,21.50
2023-06-04T12:24:10.000Z,21.50
2023-06-04T12:26:41.771Z,21.30
2023-06-04T12:29:12.462Z,21.20
2023-06-04T12:31:43.232Z,21.10
2023-06-04T12:34:12.591Z,21.10
2023-06-04T12:36:41.767Z,21.00
2023-06-04T12:39:10.268Z,20.90
2023-06-04T12:41:39.063Z,20.60
2023-06-04T12:44:07.592Z,20.50
2023-06-04T12:46:36.116Z,20.40
2023-06-04T12:49:06.649Z,20.30
2023-06-04T12:51:35.128Z,20.30
2023-06-04T12:54:03.698Z,20.20
2023-06-04T12:56:32.264Z,20.10
2023-06-04T12:59:01.621Z,20.00
2023-06-04T13:01:30.070Z,19.90
2023-06-04T13:03:58.678Z,19.80
2023-06-04T13:06:28.776Z,19.70
2023-06-04T13:08:57.428Z,19.60
2023-06-04T13:11:26.205Z,19.40
2023-06-04T13:13:54.688Z,19.40
2023-06-04T13:16:23.296Z,19.20
2023-06-04T13:18:51.868Z,19.10
2023-06-04T13:21:20.349Z,19.10
2023-06-04T13:23:51.541Z,19.10
2023-06-04T13:26:20.126Z,19.10
2023-06-04T13:28:49.277Z,19.10
2023-06-04T13:31:17.846Z,19.10
2023-06-04T13:33:46.461Z,19.10
2023-06-04T13:36:15.081Z,19.10
2023-06-04T13:38:44.427Z,19.00
2023-06-04T13:41:14.861Z,19.00
2023-06-04T13:43:43.426Z,19.00
2023-06-04T13:46:11.878Z,19.10
2023-06-04T13:48:40.448Z,19.20
2023-06-04T13:51:09.131Z,19.30
2023-06-04T13:53:37.691Z,19.30
2023-06-04T13:56:06.317Z,19.30
2023-06-04T13:58:36.212Z,19.20
2023-06-04T14:01:04.724Z,19.20
2023-06-04T14:03:33.334Z,19.20
2023-06-04T14:06:02.171Z,19.10
2023-06-04T14:08:30.624Z,19.20
2023-06-04T14:10:59.058Z,19.20
2023-06-04T14:13:28.101Z,19.20
2023-06-04T14:15:58.031Z,19.30
2023-06-04T14:18:26.632Z,19.30
2023-06-04T14:20:55.226Z,19.40
2023-06-04T14:23:23.721Z,19.50
2023-06-04T14:25:52.224Z,19.50
2023-06-04T14:28:21.835Z,19.60
2023-06-04T14:30:50.645Z,19.60
2023-06-04T14:33:20.527Z,19.60
2023-06-04T14:35:48.986Z,19.60
2023-06-04T14:38:17.541Z,19.60
2023-06-04T14:40:46.539Z,19.60
2023-06-04T14:43:15.094Z,19.70
2023-06-04T14:45:43.556Z,19.70
2023-06-04T14:48:16.044Z,19.80
2023-06-04T14:50:47.922Z,19.80
2023-06-04T14:53:16.394Z,19.80
2023-06-04T14:55:44.819Z,19.80
2023-06-04T14:58:13.411Z,19.80
2023-06-04T15:00:42.064Z,19.80
2023-06-04T15:03:10.719Z,19.70
2023-06-04T15:05:39.257Z,19.60
2023-06-04T15:08:09.648Z,19.60
2023-06-04T15:10:38.284Z,19.60
2023-06-04T15:13:06.821Z,19.40
2023-06-04T15:15:35.267Z,19.40
2023-06-04T15:18:03.845Z,19.40
2023-06-04T15:20:32.490Z,19.40
2023-06-04T15:23:00.968Z,19.40
2023-06-04T15:25:30.870Z,19.40
2023-06-04T15:28:01.012Z,19.40
2023-06-04T15:30:29.486Z,19.30
2023-06-04T15:33:01.605Z,19.30
2023-06-04T15:35:30.486Z,19.30
2023-06-04T15:37:59.203Z,19.30
2023-06-04T15:40:27.773Z,19.30
2023-06-04T15:42:57.620Z,19.30
2023-06-04T15:45:26.478Z,19.30
2023-06-04T15:47:54.995Z,19.30
2023-06-04T15:50:23.662Z,19.30
2023-06-04T15:52:52.182Z,19.20
2023-06-04T15:55:21.020Z,19.20
2023-06-04T15:57:49.635Z,19.20
2023-06-04T16:00:19.563Z,19.20
2023-06-04T16:02:48.020Z,19.20
2023-06-04T16:05:16.589Z,19.20
2023-06-04T16:07:45.011Z,19.10
2023-06-04T16:10:13.470Z,19.10
2023-06-04T16:12:42.463Z,19.00
2023-06-04T16:15:11.944Z,18.90
2023-06-04T16:17:47.738Z,18.90
2023-06-04T16:20:16.404Z,18.90
2023-06-04T16:22:44.903Z,18.90
2023-06-04T16:25:18.194Z,18.90
2023-06-04T16:27:47.074Z,18.90
2023-06-04T16:30:15.828Z,18.90
2023-06-04T16:32:45.744Z,18.90
2023-06-04T16:35:14.309Z,18.90
2023-06-04T16:37:42.811Z,19.00
2023-06-04T16:40:12.343Z,19.00
2023-06-04T16:42:41.068Z,18.90
2023-06-04T16:45:10.475Z,18.90
2023-06-04T16:47:41.049Z,18.90
2023-06-04T16:50:11.764Z,18.90
2023-06-04T16:52:40.201Z,18.90
2023-06-04T16:55:10.283Z,18.90
2023-06-04T16:57:39.495Z,18.90
2023-06-04T17:00:24.802Z,18.80
2023-06-04T17:02:56.307Z,18.80
2023-06-04T17:05:26.696Z,18.80
2023-06-04T17:07:55.812Z,18.80
2023-06-04T17:10:24.620Z,18.80
2023-06-04T17:12:53.189Z,18.80
2023-06-04T17:15:21.609Z,18.70
2023-06-04T17:17:51.431Z,18.70
2023-06-04T17:20:20.064Z,18.70
2023-06-04T17:22:49.866Z,18.70
2023-06-04T17:25:18.521Z,18.70
2023-06-04T17:27:51.752Z,18.70
2023-06-04T17:30:20.988Z,18.60
2023-06-04T17:32:49.517Z,18.60
2023-06-04T17:35:18.931Z,18.50
2023-06-04T17:37:47.370Z,18.40
2023-06-04T17:40:17.244Z,18.30
2023-06-04T17:42:47.753Z,18.30
2023-06-04T17:45:16.460Z,18.20
2023-06-04T17:47:45.338Z,18.20
2023-06-04T17:50:13.792Z,18.10
2023-06-04T17:52:42.266Z,18.10
2023-06-04T17:55:11.062Z,18.10
2023-06-04T17:57:40.997Z,18.10
2023-06-04T18:00:10.714Z,18.10
2023-06-04T18:02:39.186Z,18.10
2023-06-04T18:05:08.825Z,18.00
2023-06-04T18:07:37.526Z,18.00
2023-06-04T18:10:08.490Z,17.90
2023-06-04T18:12:37.336Z,17.80
2023-06-04T18:15:08.127Z,17.80
2023-06-04T18:17:36.551Z,17.80
2023-06-04T18:20:05.381Z,17.80
2023-06-04T18:22:34.022Z,17.80
2023-06-04T18:25:02.934Z,17.80
2023-06-04T18:27:31.569Z,17.70
2023-06-04T18:30:00.178Z,17.70
2023-06-04T18:32:30.155Z,17.70
2023-06-04T18:34:58.879Z,17.70
2023-06-04T18:37:27.529Z,17.80
2023-06-04T18:39:56.138Z,17.80
2023-06-04T18:42:30.661Z,17.80
2023-06-04T18:45:01.259Z,17.70
2023-06-04T18:47:31.879Z,17.70
2023-06-04T18:50:00.441Z,17.70
2023-06-04T18:52:28.962Z,17.70
2023-06-04T18:54:57.915Z,17.80
2023-06-04T18:57:26.435Z,17.80
2023-06-04T18:59:54.892Z,17.80
2023-06-04T19:02:23.444Z,17.70
2023-06-04T19:04:53.308Z,17.60
2023-06-04T19:07:21.974Z,17.70
2023-06-04T19:09:50.677Z,17.60
2023-06-04T19:12:19.123Z,17.60
2023-06-04T19:14:47.586Z,17.60
2023-06-04T19:17:19.991Z,17.60
2023-06-04T19:19:48.799Z,17.50
2023-06-04T19:22:18.690Z,17.60
2023-06-04T19:24:47.167Z,17.50
2023-06-04T19:27:17.662Z,17.60
2023-06-04T19:29:46.823Z,17.60
2023-06-04T19:32:15.492Z,17.50
2023-06-04T19:34:43.926Z,17.40
2023-06-04T19:37:12.353Z,17.40
2023-06-04T19:39:42.233Z,17.30
2023-06-04T19:42:10.881Z,17.30
2023-06-04T19:44:39.396Z,17.30
2023-06-04T19:47:08.146Z,17.40
2023-06-04T19:49:36.655Z,17.40
2023-06-04T19:52:06.180Z,17.40
2023-06-04T19:54:34.630Z,17.50
2023-06-04T19:57:04.584Z,17.40
2023-06-04T19:59:33.038Z,17.50
2023-06-04T20:02:01.494Z,17.60
2023-06-04T20:04:30.029Z,17.60
2023-06-04T20:06:58.659Z,17.70
2023-06-04T20:09:27.286Z,17.60
2023-06-04T20:11:55.924Z,17.70
2023-06-04T20:14:25.899Z,17.70
2023-06-04T20:16:54.604Z,17.80
2023-06-04T20:19:23.561Z,17.60
2023-06-04T20:21:52.012Z,17.60
2023-06-04T20:24:21.168Z,17.50
2023-06-04T20:26:49.714Z,17.50
2023-06-04T20:29:18.248Z,17.40
2023-06-04T20:31:48.070Z,17.40
2023-06-04T20:34:16.712Z,17.30
2023-06-04T20:36:45.162Z,17.30
2023-06-04T20:39:13.722Z,17.30
2023-06-04T20:41:42.197Z,17.20
2023-06-04T20:44:10.657Z,17.20
2023-06-04T20:46:39.125Z,17.10
2023-06-04T20:49:08.997Z,17.10
2023-06-04T20:51:37.692Z,17.10
2023-06-04T20:54:07.077Z,17.10
2023-06-04T20:56:35.529Z,17.10
2023-06-04T20:59:04.185Z,17.10
2023-06-04T21:01:32.674Z,17.10
2023-06-04T21:04:01.908Z,17.00
2023-06-04T21:06:31.939Z,16.90
2023-06-04T21:09:00.425Z,16.90
2023-06-04T21:11:29.116Z,16.90
2023-06-04T21:13:58.010Z,16.90
2023-06-04T21:16:26.613Z,17.00
2023-06-04T21:18:55.168Z,17.00
2023-06-04T21:21:23.594Z,17.00
2023-06-04T21:23:53.447Z,17.00
2023-06-04T21:26:21.961Z,16.90
2023-06-04T21:28:50.637Z,17.00
2023-06-04T21:31:19.100Z,17.00
2023-06-04T21:33:47.619Z,17.00
2023-06-04T21:36:16.493Z,17.00
2023-06-04T21:38:45.229Z,17.00
2023-06-04T21:41:16.196Z,17.00
2023-06-04T21:43:44.607Z,17.10
2023-06-04T21:46:13.548Z,17.00
2023-06-04T21:48:42.011Z,17.10
2023-06-04T21:51:10.505Z,17.10
2023-06-04T21:53:39.197Z,17.00
2023-06-04T21:56:07.652Z,17.00
2023-06-04T21:58:37.471Z,17.00
2023-06-04T22:01:06.055Z,17.10
2023-06-04T22:03:34.793Z,17.10
2023-06-04T22:06:03.806Z,17.00
2023-06-04T22:08:32.327Z,17.00
2023-06-04T22:11:00.803Z,17.10
2023-06-04T22:13:29.411Z,17.10
2023-06-04T22:15:59.262Z,17.10
2023-06-04T22:18:32.291Z,17.00
2023-06-04T22:21:06.871Z,17.00
2023-06-04T22:23:36.518Z,17.00
2023-06-04T22:26:05.015Z,17.00
2023-06-04T22:28:33.479Z,16.90
2023-06-04T22:31:03.334Z,16.90
2023-06-04T22:33:32.049Z,16.90
2023-06-04T22:36:00.635Z,16.90
2023-06-04T22:38:29.107Z,16.90
2023-06-04T22:40:57.531Z,16.90
2023-06-04T22:43:27.542Z,16.90
2023-06-04T22:45:56.122Z,16.80
2023-06-04T22:48:26.019Z,16.80
2023-06-04T22:50:58.434Z,16.70
2023-06-04T22:53:27.720Z,16.70
2023-06-04T22:55:56.246Z,16.70
2023-06-04T22:58:24.814Z,16.70
2023-06-04T23:00:53.724Z,16.70
2023-06-04T23:03:26.388Z,16.70
2023-06-04T23:05:56.598Z,16.70
2023-06-04T23:08:25.089Z,16.70
2023-06-04T23:10:53.510Z,16.70
2023-06-04T23:13:22.019Z,16.70
2023-06-04T23:15:50.469Z,16.60
2023-06-04T23:18:19.009Z,16.60
2023-06-04T23:20:47.458Z,16.50
2023-06-04T23:23:17.507Z,16.60
2023-06-04T23:25:46.111Z,16.60
2023-06-04T23:28:14.636Z,16.60
2023-06-04T23:30:43.111Z,16.60
2023-06-04T23:33:11.633Z,16.70
2023-06-04T23:35:40.683Z,16.70
2023-06-04T23:38:09.236Z,16.70
2023-06-04T23:40:39.276Z,16.70
2023-06-04T23:43:07.773Z,16.60
2023-06-04T23:45:36.226Z,16.70
2023-06-04T23:48:04.896Z,16.70
2023-06-04T23:50:33.375Z,16.70
2023-06-04T23:53:01.884Z,16.70
2023-06-04T23:55:30.368Z,16.70
2023-06-04T23:58:00.160Z,16.60
